Time;durP1;ratioP1;P1;durP2;ratioP2;P2;SDS_P1;SDS_P2;PMS_P1;PMS_P2;Temp;Humidity;BMP_temperature;BMP_pressure;BME280_temperature;BME280_humidity;BME280_pressure;Samples;Min_cycle;Max_cycle;Signal;HPM_P1;HPM_P2
2023/01/26 00:00:31;;;;;;;24.00;12.73;;;;;;;3.67;92.76;101224.25;5113027;28;20029;-68
2023/01/26 00:02:56;;;;;;;24.08;12.80;;;;;;;3.65;92.82;101224.34;5112002;28;20024;-68
2023/01/26 00:05:22;;;;;;;20.55;11.98;;;;;;;3.65;92.95;101224.34;5113004;28;20019;-68
2023/01/26 00:07:47;;;;;;;26.13;13.20;;;;;;;3.65;93.32;101220.84;5111331;28;20019;-68
2023/01/26 00:10:14;;;;;;;30.65;13.57;;;;;;;3.62;94.02;101219.19;5111717;28;20027;-68
2023/01/26 00:12:39;;;;;;;29.27;15.32;;;;;;;3.59;94.70;101207.84;5112855;28;20102;-68
2023/01/26 00:15:05;;;;;;;23.10;12.63;;;;;;;3.57;95.29;101205.28;5112894;28;20063;-68
2023/01/26 00:17:30;;;;;;;26.40;14.40;;;;;;;3.48;94.98;101194.22;5112306;28;20026;-68
2023/01/26 00:19:57;;;;;;;28.85;15.45;;;;;;;3.54;95.80;101192.16;5111238;28;20028;-68
2023/01/26 00:22:25;;;;;;;31.17;16.58;;;;;;;3.53;96.26;101198.38;5112187;28;20024;-68
2023/01/26 00:24:50;;;;;;;28.52;15.77;;;;;;;3.55;96.32;101198.31;5112992;28;20102;-68
2023/01/26 00:27:16;;;;;;;28.40;15.75;;;;;;;3.45;96.13;101183.75;5112936;28;20108;-68
2023/01/26 00:29:42;;;;;;;29.30;16.98;;;;;;;3.48;96.52;101197.72;5112583;28;20028;-68
2023/01/26 00:32:08;;;;;;;29.52;16.63;;;;;;;3.47;97.27;101200.44;5112337;28;20537;-68
2023/01/26 00:34:33;;;;;;;31.50;17.35;;;;;;;3.54;96.15;101196.56;5112065;28;20023;-68
2023/01/26 00:36:59;;;;;;;36.63;18.33;;;;;;;3.43;96.00;101189.13;5112977;28;20030;-68
2023/01/26 00:39:24;;;;;;;31.30;17.50;;;;;;;3.44;97.18;101197.91;5112782;28;20024;-67
2023/01/26 00:44:33;;;;;;;32.20;17.15;;;;;;;3.38;98.45;101196.41;5112806;28;20074;-67
2023/01/26 00:46:59;;;;;;;37.17;17.67;;;;;;;3.33;99.01;101182.50;5112639;28;20051;-68
2023/01/26 00:49:24;;;;;;;33.83;18.27;;;;;;;3.37;99.15;101193.81;5112533;28;20039;-68
2023/01/26 00:51:50;;;;;;;38.08;19.58;;;;;;;3.28;99.06;101189.78;5110755;28;20111;-67
2023/01/26 00:54:15;;;;;;;35.20;19.33;;;;;;;3.32;99.56;101188.72;5110488;28;20122;-68
2023/01/26 00:56:40;;;;;;;33.88;18.17;;;;;;;3.25;99.79;101181.09;5111705;28;20218;-67
2023/01/26 00:59:06;;;;;;;30.67;17.58;;;;;;;3.24;99.85;101185.56;5111335;28;20031;-68
2023/01/26 01:01:32;;;;;;;32.72;17.98;;;;;;;3.21;100.00;101179.53;5111378;28;20488;-68
2023/01/26 01:03:57;;;;;;;34.58;18.60;;;;;;;3.22;100.00;101170.66;5112093;28;20387;-68
2023/01/26 01:06:23;;;;;;;30.75;17.35;;;;;;;3.24;100.00;101168.78;5111768;28;20020;-68
2023/01/26 01:08:48;;;;;;;32.15;18.15;;;;;;;3.19;100.00;101162.84;5112074;28;20475;-68
2023/01/26 01:11:14;;;;;;;33.13;18.08;;;;;;;3.21;100.00;101166.28;5111714;28;20030;-68
2023/01/26 01:13:39;;;;;;;31.42;18.73;;;;;;;3.20;100.00;101161.91;5111956;28;20550;-68
2023/01/26 01:16:10;;;;;;;30.00;17.77;;;;;;;3.15;100.00;101155.94;5112228;28;20039;-68
2023/01/26 01:18:36;;;;;;;34.50;18.50;;;;;;;3.16;100.00;101149.72;5111926;28;20024;-68
2023/01/26 01:21:06;;;;;;;30.88;17.55;;;;;;;3.26;99.84;101157.19;5111747;28;20107;-68
2023/01/26 01:23:31;;;;;;;30.45;17.70;;;;;;;3.19;100.00;101163.69;5111710;28;20053;-68
2023/01/26 01:25:58;;;;;;;35.20;19.92;;;;;;;3.13;100.00;101152.53;5112018;28;20023;-69
2023/01/26 01:28:24;;;;;;;31.33;17.75;;;;;;;3.08;100.00;101152.72;5112266;28;20089;-69
2023/01/26 01:30:49;;;;;;;32.90;19.35;;;;;;;3.08;100.00;101155.38;5111875;28;20040;-69
2023/01/26 01:33:15;;;;;;;36.60;19.77;;;;;;;3.09;100.00;101153.59;5111561;28;20016;-68
2023/01/26 01:35:41;;;;;;;33.97;20.08;;;;;;;3.07;100.00;101152.78;5112218;28;20084;-68
2023/01/26 01:38:06;;;;;;;34.85;18.73;;;;;;;3.07;100.00;101151.00;5112081;28;20368;-68
2023/01/26 01:40:31;;;;;;;32.65;18.73;;;;;;;2.98;100.00;101135.50;5112189;28;20489;-68
2023/01/26 01:42:57;;;;;;;35.80;18.58;;;;;;;3.09;100.00;101151.78;5111608;28;20030;-69
2023/01/26 01:45:25;;;;;;;29.23;17.38;;;;;;;3.08;100.00;101151.84;5111908;28;20062;-68
2023/01/26 01:48:00;;;;;;;34.47;19.88;;;;;;;3.03;100.00;101148.56;5111430;28;20034;-68
2023/01/26 01:50:26;;;;;;;31.90;18.33;;;;;;;3.03;100.00;101145.91;5111677;28;20058;-68
2023/01/26 01:52:55;;;;;;;36.80;20.35;;;;;;;3.04;100.00;101145.84;5111462;28;20476;-68
2023/01/26 01:55:20;;;;;;;35.38;19.52;;;;;;;3.05;100.00;101146.69;5111189;28;20024;-69
2023/01/26 01:57:54;;;;;;;31.60;18.25;;;;;;;3.04;100.00;101129.06;5111265;28;20481;-68
2023/01/26 02:00:21;;;;;;;32.17;19.80;;;;;;;3.00;100.00;101127.50;5111624;28;20089;-68
2023/01/26 02:03:10;;;;;;;32.05;18.40;;;;;;;2.95;100.00;101108.28;5111445;28;20601;-68
2023/01/26 02:05:50;;;;;;;33.78;19.10;;;;;;;3.09;100.00;101127.09;5111665;28;20360;-68
2023/01/26 02:08:18;;;;;;;33.53;18.92;;;;;;;3.05;100.00;101125.47;5111282;28;20446;-68
2023/01/26 02:10:49;;;;;;;33.17;19.13;;;;;;;2.96;100.00;101110.00;5109792;28;20081;-68
2023/01/26 02:13:18;;;;;;;35.80;19.15;;;;;;;3.03;100.00;101117.59;5111248;28;20062;-68
2023/01/26 02:15:44;;;;;;;37.38;19.40;;;;;;;2.97;100.00;101112.56;5110919;28;20066;-68
2023/01/26 02:18:10;;;;;;;34.60;19.60;;;;;;;3.02;100.00;101109.72;5110249;28;20019;-68
2023/01/26 02:20:45;;;;;;;34.75;19.65;;;;;;;3.04;100.00;101124.63;5109714;28;20503;-68
2023/01/26 02:23:25;;;;;;;36.60;20.77;;;;;;;3.01;100.00;101113.31;5110072;28;20107;-67
2023/01/26 02:25:53;;;;;;;34.92;20.48;;;;;;;3.03;100.00;101114.09;5112252;28;20072;-68
2023/01/26 02:28:24;;;;;;;39.28;21.65;;;;;;;2.98;100.00;101105.50;5113468;28;20024;-67
2023/01/26 02:30:51;;;;;;;39.05;21.63;;;;;;;2.94;100.00;101090.66;5114737;28;20063;-68
2023/01/26 02:33:22;;;;;;;36.97;21.38;;;;;;;2.98;100.00;101109.00;5114840;28;20486;-68
2023/01/26 02:35:48;;;;;;;38.50;23.45;;;;;;;2.92;100.00;101095.16;5114685;28;20042;-67
2023/01/26 02:38:14;;;;;;;40.28;21.92;;;;;;;2.93;100.00;101100.38;5114449;28;20027;-68
2023/01/26 02:40:49;;;;;;;45.85;24.90;;;;;;;2.91;100.00;101091.66;5113513;28;20031;-68
2023/01/26 02:43:15;;;;;;;37.38;20.33;;;;;;;2.93;100.00;101087.13;5114650;28;20030;-68
2023/01/26 02:45:42;;;;;;;35.65;20.75;;;;;;;2.79;100.00;101064.84;5114479;28;20039;-68
2023/01/26 02:48:07;;;;;;;37.95;21.70;;;;;;;2.88;100.00;101081.22;5113218;28;20043;-67
2023/01/26 02:50:33;;;;;;;39.28;21.55;;;;;;;2.88;100.00;101075.91;5114324;28;20035;-68
2023/01/26 02:53:00;;;;;;;40.40;22.13;;;;;;;2.88;100.00;101072.38;5114516;28;20027;-68
2023/01/26 02:55:30;;;;;;;39.33;20.30;;;;;;;2.86;100.00;101060.97;5113643;28;20047;-67
2023/01/26 02:58:01;;;;;;;41.05;21.58;;;;;;;2.86;100.00;101058.34;5113785;28;20123;-68
2023/01/26 03:00:36;;;;;;;41.42;21.85;;;;;;;2.76;100.00;101038.50;5114389;28;20024;-68
2023/01/26 03:03:17;;;;;;;37.83;22.30;;;;;;;2.88;100.00;101061.78;5113894;28;20039;-68
2023/01/26 03:05:42;;;;;;;40.70;21.10;;;;;;;2.88;100.00;101056.50;5112389;27;20476;-68
2023/01/26 03:08:08;;;;;;;38.35;21.15;;;;;;;2.83;100.00;101037.31;5112341;28;20029;-68
2023/01/26 03:10:34;;;;;;;37.95;21.60;;;;;;;2.85;100.00;101052.19;5113333;28;20029;-68
2023/01/26 03:12:59;;;;;;;37.33;21.30;;;;;;;2.82;100.00;101046.16;5113973;28;20065;-68
2023/01/26 03:15:51;;;;;;;37.55;21.20;;;;;;;2.82;100.00;101044.38;5113966;28;20039;-68
2023/01/26 03:29:28;;;;;;;;;;;;;;;2.77;100.00;101025.19;5114876;28;20379;-68
2023/01/26 03:31:54;;;;;;;31.17;17.33;;;;;;;2.79;100.00;101022.47;5114214;28;19911;-68
2023/01/26 03:34:19;;;;;;;35.88;19.45;;;;;;;2.79;100.00;101015.38;5113979;28;20035;-68
2023/01/26 03:36:46;;;;;;;33.22;19.80;;;;;;;2.76;100.00;101018.16;5112885;28;20440;-68
2023/01/26 03:41:06;;;;;;;35.45;19.80;;;;;;;2.70;100.00;101010.50;5113401;28;20027;-68
2023/01/26 03:58:22;;;;;;;35.90;19.23;;;;;;;2.81;100.00;101000.31;5113059;28;20093;-68
2023/01/26 04:00:50;;;;;;;37.17;18.52;;;;;;;2.77;100.00;100993.41;5113001;28;20472;-68
2023/01/26 04:08:46;;;;;;;35.17;19.40;;;;;;;2.80;100.00;100993.25;5112865;28;20045;-68
2023/01/26 04:11:12;;;;;;;31.83;18.58;;;;;;;2.80;100.00;100992.44;5112310;28;20077;-68
2023/01/26 04:21:49;;;;;;;39.75;20.17;;;;;;;2.94;100.00;100988.22;5112715;28;20427;-68
2023/01/26 04:24:14;;;;;;;40.97;19.85;;;;;;;2.82;100.00;100961.41;5112599;28;20020;-68
2023/01/26 04:26:41;;;;;;;37.28;19.02;;;;;;;2.93;100.00;100988.28;5112108;28;20030;-68
2023/01/26 04:29:12;;;;;;;40.72;20.40;;;;;;;2.89;100.00;100973.44;5112567;28;20089;-67
2023/01/26 04:31:39;;;;;;;38.03;19.17;;;;;;;2.91;100.00;100968.94;5111180;28;20027;-68
2023/01/26 04:34:06;;;;;;;36.67;19.45;;;;;;;2.95;100.00;100983.75;5112501;27;20061;-68
2023/01/26 04:36:33;;;;;;;37.38;18.83;;;;;;;2.95;100.00;100978.44;5112628;28;20411;-68
2023/01/26 04:38:58;;;;;;;41.63;19.65;;;;;;;2.96;100.00;100985.50;5111543;28;20448;-68
2023/01/26 04:41:24;;;;;;;40.38;18.67;;;;;;;2.96;100.00;100982.84;5111568;28;20107;-68
2023/01/26 04:43:49;;;;;;;38.35;19.55;;;;;;;2.98;100.00;100980.97;5112285;28;20024;-68
2023/01/26 04:46:15;;;;;;;39.33;20.02;;;;;;;2.98;100.00;100975.66;5111976;28;20035;-68
2023/01/26 04:48:41;;;;;;;40.33;19.80;;;;;;;2.98;100.00;100975.66;5110484;28;20031;-68
2023/01/26 04:51:19;;;;;;;44.47;20.15;;;;;;;2.96;100.00;100967.78;5111507;28;20508;-68
2023/01/26 04:53:45;;;;;;;41.15;19.35;;;;;;;2.99;100.00;100972.06;5111557;28;20649;-68
2023/01/26 04:56:19;;;;;;;38.15;19.95;;;;;;;3.00;100.00;100966.72;5109747;28;20028;-68
2023/01/26 04:58:45;;;;;;;37.25;19.95;;;;;;;3.00;100.00;100966.72;5109492;28;20024;-68
2023/01/26 05:01:10;;;;;;;41.22;21.52;;;;;;;2.99;100.00;100962.34;5112102;28;20030;-68
2023/01/26 05:03:35;;;;;;;47.30;21.13;;;;;;;3.01;100.00;100967.56;5110636;28;20114;-68
2023/01/26 05:06:01;;;;;;;49.22;21.77;;;;;;;3.00;100.00;100968.53;5111915;28;20106;-68
2023/01/26 05:08:26;;;;;;;46.53;19.33;;;;;;;2.92;100.00;100958.28;5111531;28;20038;-69
2023/01/26 05:10:52;;;;;;;48.15;22.83;;;;;;;2.98;100.00;100965.94;5110969;28;20091;-68
2023/01/26 05:13:18;;;;;;;47.20;21.08;;;;;;;3.02;100.00;100964.00;5111751;28;20515;-69
2023/01/26 05:15:43;;;;;;;42.47;20.67;;;;;;;3.03;100.00;100977.16;5111980;28;20038;-68
2023/01/26 05:18:09;;;;;;;41.45;19.40;;;;;;;3.04;100.00;100973.59;5111629;28;20020;-68
2023/01/26 05:20:35;;;;;;;43.95;20.65;;;;;;;3.05;100.00;100971.81;5111885;28;20044;-68
2023/01/26 05:23:00;;;;;;;43.85;22.08;;;;;;;3.08;100.00;100976.97;5111841;28;20019;-68
2023/01/26 05:25:26;;;;;;;45.90;20.85;;;;;;;3.07;100.00;100964.66;5112064;28;20106;-68
2023/01/26 05:27:52;;;;;;;52.47;22.40;;;;;;;3.14;100.00;100976.66;5112071;28;20024;-68
2023/01/26 05:30:18;;;;;;;50.83;21.60;;;;;;;3.09;100.00;100965.44;5110904;28;20019;-68
2023/01/26 05:32:44;;;;;;;45.42;20.48;;;;;;;3.13;100.00;100965.19;5111237;28;20432;-68
2023/01/26 05:35:09;;;;;;;46.25;22.08;;;;;;;3.14;100.00;100971.38;5111181;28;20023;-67
2023/01/26 05:37:35;;;;;;;45.88;21.35;;;;;;;3.11;100.00;100969.72;5110917;28;20055;-67
2023/01/26 05:40:00;;;;;;;44.67;22.30;;;;;;;3.06;100.00;100962.94;5110357;28;20023;-67
2023/01/26 05:42:26;;;;;;;51.08;21.95;;;;;;;2.92;100.00;100939.72;5111788;28;20020;-68
2023/01/26 05:44:52;;;;;;;44.30;21.60;;;;;;;3.05;100.00;100972.66;5110314;28;20039;-68
2023/01/26 05:47:18;;;;;;;44.30;21.20;;;;;;;3.01;100.00;100964.94;5110396;28;20034;-68
2023/01/26 05:49:44;;;;;;;48.83;22.02;;;;;;;3.01;100.00;100964.94;5111223;28;20357;-68
2023/01/26 05:52:16;;;;;;;43.90;21.73;;;;;;;2.91;100.00;100953.03;5111433;28;20045;-68
2023/01/26 05:54:42;;;;;;;50.33;23.15;;;;;;;2.99;100.00;100974.72;5110176;28;20027;-68
2023/01/26 05:57:08;;;;;;;48.53;23.98;;;;;;;2.96;100.00;100967.78;5111220;28;20448;-68
2023/01/26 05:59:34;;;;;;;47.30;23.02;;;;;;;2.98;100.00;100965.06;5110523;28;20035;-68
2023/01/26 06:02:00;;;;;;;49.00;21.50;;;;;;;2.98;100.00;100973.03;5114344;28;20024;-68
2023/01/26 06:04:26;;;;;;;49.70;22.50;;;;;;;3.00;100.00;100964.06;5114560;28;20024;-68
2023/01/26 06:06:55;;;;;;;45.53;21.30;;;;;;;2.99;100.00;100972.06;5115076;28;20485;-68
2023/01/26 06:09:21;;;;;;;43.65;20.95;;;;;;;2.97;100.00;100976.59;5114369;28;20051;-68
2023/01/26 06:11:47;;;;;;;46.28;22.27;;;;;;;2.95;100.00;100970.50;5114472;28;20054;-68
2023/01/26 06:14:12;;;;;;;52.40;23.20;;;;;;;2.94;100.00;100969.66;5114882;28;20019;-68
2023/01/26 06:20:26;;;;;;;48.38;22.17;;;;;;;2.96;100.00;100973.09;5114387;28;20042;-69
2023/01/26 06:22:51;;;;;;;51.08;22.70;;;;;;;2.94;100.00;100964.38;5114695;28;20039;-68
2023/01/26 06:25:17;;;;;;;52.22;23.30;;;;;;;2.97;100.00;100966.84;5113486;28;20030;-67
2023/01/26 06:27:43;;;;;;;53.00;23.15;;;;;;;2.96;100.00;100969.59;5114649;28;20055;-68
2023/01/26 06:30:09;;;;;;;48.40;22.08;;;;;;;2.97;100.00;100968.66;5114675;28;20504;-68
2023/01/26 06:32:36;;;;;;;46.45;21.45;;;;;;;2.96;100.00;100967.78;5114680;28;20019;-68
2023/01/26 06:35:02;;;;;;;52.30;22.45;;;;;;;2.97;100.00;100972.16;5113731;27;20027;-68
2023/01/26 06:37:27;;;;;;;48.90;23.25;;;;;;;2.96;100.00;100969.59;5114099;28;20526;-68
2023/01/26 06:39:52;;;;;;;49.67;24.20;;;;;;;2.84;100.00;100941.84;5112879;28;20047;-68
2023/01/26 06:42:18;;;;;;;62.30;22.02;;;;;;;3.00;100.00;100971.16;5112740;28;20024;-68
2023/01/26 06:44:43;;;;;;;48.13;23.33;;;;;;;3.01;100.00;100965.81;5115015;28;20020;-68
2023/01/26 06:47:09;;;;;;;42.10;22.25;;;;;;;3.01;100.00;100973.75;5114600;28;20031;-68
2023/01/26 06:49:34;;;;;;;45.63;20.85;;;;;;;2.96;100.00;100965.13;5113921;28;20024;-68
2023/01/26 06:52:34;;;;;;;44.53;21.90;;;;;;;3.00;100.00;100965.88;5114293;28;20072;-68
2023/01/26 06:55:01;;;;;;;47.90;22.27;;;;;;;3.01;100.00;100970.22;5070925;28;20066;-68
2023/01/26 06:57:27;;;;;;;50.83;23.13;;;;;;;2.96;100.00;100959.84;5114209;27;20530;-68
2023/01/26 06:59:53;;;;;;;48.80;22.75;;;;;;;2.95;100.00;100955.47;5114745;28;20031;-68
2023/01/26 07:02:20;;;;;;;48.45;23.50;;;;;;;3.00;100.00;100974.66;5114521;28;20055;-68
2023/01/26 07:04:46;;;;;;;46.47;23.27;;;;;;;3.02;100.00;100961.34;5113326;28;20080;-68
2023/01/26 07:07:12;;;;;;;49.85;22.52;;;;;;;2.99;100.00;100951.75;5114878;28;20066;-68
2023/01/26 07:09:38;;;;;;;46.65;23.30;;;;;;;3.04;100.00;100959.50;5114105;28;20043;-69
2023/01/26 07:12:04;;;;;;;48.90;23.17;;;;;;;3.06;100.00;100965.59;5114226;28;20027;-69
2023/01/26 07:14:31;;;;;;;46.20;23.65;;;;;;;3.07;100.00;100948.75;5113968;28;20080;-68
2023/01/26 07:16:57;;;;;;;48.65;23.88;;;;;;;2.97;100.00;100937.72;5113091;28;20381;-68
2023/01/26 07:19:22;;;;;;;50.08;25.48;;;;;;;3.03;100.00;100952.47;5114230;28;20039;-69
2023/01/26 07:21:48;;;;;;;55.42;23.50;;;;;;;3.01;100.00;100949.91;5114141;28;20160;-69
2023/01/26 07:24:13;;;;;;;55.85;26.17;;;;;;;3.03;100.00;100947.19;5114329;28;20529;-68
2023/01/26 07:26:39;;;;;;;51.05;24.63;;;;;;;2.97;100.00;100948.31;5114145;28;20028;-68
2023/01/26 07:29:04;;;;;;;46.03;25.42;;;;;;;3.05;100.00;100948.81;5114099;28;20380;-68
2023/01/26 07:31:30;;;;;;;53.58;24.73;;;;;;;3.06;100.00;100950.53;5114251;28;20479;-68
2023/01/26 07:33:55;;;;;;;48.17;25.10;;;;;;;3.08;100.00;100947.81;5113924;28;20016;-68
2023/01/26 07:36:21;;;;;;;54.30;26.92;;;;;;;3.07;100.00;100949.63;5113068;28;20043;-68
2023/01/26 07:38:47;;;;;;;51.97;25.88;;;;;;;3.02;100.00;100945.44;5114136;27;20472;-68
2023/01/26 07:41:12;;;;;;;55.22;27.60;;;;;;;3.12;100.00;100962.63;5114155;28;20023;-68
2023/01/26 07:43:38;;;;;;;56.03;27.38;;;;;;;3.07;100.00;100948.75;5113342;28;20028;-68
2023/01/26 07:46:04;;;;;;;58.25;26.63;;;;;;;3.02;100.00;100935.72;5113563;28;20039;-68
2023/01/26 07:48:30;;;;;;;53.15;28.17;;;;;;;3.06;100.00;100947.88;5112369;28;20034;-68
2023/01/26 07:51:00;;;;;;;55.47;27.75;;;;;;;3.10;100.00;100957.44;5113426;28;20027;-68
2023/01/26 07:53:28;;;;;;;50.85;26.25;;;;;;;3.12;100.00;100954.66;5113683;28;20019;-68
2023/01/26 07:55:55;;;;;;;55.63;27.63;;;;;;;3.07;100.00;100946.09;5112088;28;20030;-68
2023/01/26 07:58:20;;;;;;;53.20;26.13;;;;;;;3.07;100.00;100943.44;5111432;28;20047;-68
2023/01/26 08:00:46;;;;;;;54.03;25.35;;;;;;;3.14;100.00;100951.03;5113288;28;20031;-67
2023/01/26 08:03:12;;;;;;;55.67;25.08;;;;;;;3.19;100.00;100953.47;5113538;28;20034;-68
2023/01/26 08:05:38;;;;;;;52.20;25.60;;;;;;;3.13;100.00;100945.81;5112955;28;20054;-67
2023/01/26 08:08:03;;;;;;;57.10;25.13;;;;;;;3.24;100.00;100949.66;5113285;28;20016;-68
2023/01/26 08:10:32;;;;;;;49.80;24.30;;;;;;;3.26;100.00;100949.59;5112548;28;20020;-68
2023/01/26 08:12:59;;;;;;;54.15;26.42;;;;;;;3.26;100.00;100941.66;5111492;28;20072;-68
2023/01/26 08:15:25;;;;;;;53.97;26.42;;;;;;;3.21;100.00;100933.03;5111790;28;20023;-68
2023/01/26 08:17:52;;;;;;;48.05;24.65;;;;;;;3.26;100.00;100941.66;5112693;28;20074;-68
2023/01/26 08:20:18;;;;;;;58.75;25.30;;;;;;;3.30;100.00;100935.25;5111862;28;20047;-68
2023/01/26 08:22:43;;;;;;;54.05;25.95;;;;;;;3.31;100.00;100943.13;5111356;28;20437;-68
2023/01/26 08:25:09;;;;;;;53.20;24.90;;;;;;;3.31;100.00;100942.25;5112172;28;20019;-68
2023/01/26 08:27:34;;;;;;;51.63;25.33;;;;;;;3.26;100.00;100939.84;5112119;27;20038;-68
2023/01/26 08:30:00;;;;;;;55.60;25.55;;;;;;;3.32;100.00;100944.00;5112707;28;20023;-67
2023/01/26 08:32:27;;;;;;;50.78;25.23;;;;;;;3.33;100.00;100935.13;5112939;28;20092;-68
2023/01/26 08:34:52;;;;;;;47.67;25.10;;;;;;;3.35;100.00;100938.56;5112531;28;20456;-67
2023/01/26 08:37:18;;;;;;;54.42;25.98;;;;;;;3.31;100.00;100926.34;5111748;28;20023;-68
2023/01/26 08:39:43;;;;;;;53.50;26.65;;;;;;;3.35;100.00;100928.78;5113013;28;20031;-68
2023/01/26 08:42:09;;;;;;;53.83;26.85;;;;;;;3.37;100.00;100941.97;5112757;28;20020;-68
2023/01/26 08:44:34;;;;;;;54.40;26.45;;;;;;;3.36;100.00;100940.28;5111764;28;20034;-68
2023/01/26 08:46:59;;;;;;;58.70;26.05;;;;;;;3.39;100.00;100946.25;5112077;28;20039;-68
2023/01/26 08:49:25;;;;;;;58.53;26.25;;;;;;;3.37;100.00;100947.28;5112546;28;20107;-68
2023/01/26 08:51:51;;;;;;;57.03;26.67;;;;;;;3.36;100.00;100946.44;5112520;28;20040;-68
2023/01/26 08:54:16;;;;;;;55.33;26.80;;;;;;;3.35;100.00;100939.41;5112689;28;20051;-68
2023/01/26 08:56:42;;;;;;;52.88;26.30;;;;;;;3.34;100.00;100936.81;5112142;28;20047;-68
2023/01/26 08:59:07;;;;;;;54.30;26.90;;;;;;;3.35;100.00;100939.41;5112204;28;20027;-69
2023/01/26 09:01:32;;;;;;;57.42;29.13;;;;;;;3.34;100.00;100937.69;5112420;28;20016;-68
2023/01/26 09:03:58;;;;;;;60.40;28.63;;;;;;;3.36;100.00;100940.28;5110627;28;20061;-67
2023/01/26 09:06:24;;;;;;;57.40;27.98;;;;;;;3.39;100.00;100942.78;5111990;28;20107;-67
2023/01/26 09:08:49;;;;;;;60.63;30.50;;;;;;;3.42;100.00;100942.63;5111936;28;20483;-67
2023/01/26 09:11:15;;;;;;;61.55;31.23;;;;;;;3.36;100.00;100940.28;5112049;28;20034;-68
2023/01/26 09:13:41;;;;;;;59.80;29.20;;;;;;;3.42;100.00;100950.56;5111215;28;20024;-68
2023/01/26 09:16:12;;;;;;;56.25;29.25;;;;;;;3.40;100.00;100949.78;5111594;28;20488;-68
2023/01/26 09:18:37;;;;;;;68.63;30.58;;;;;;;3.41;100.00;100948.84;5111923;28;20031;-68
2023/01/26 09:21:07;;;;;;;57.03;28.88;;;;;;;3.47;100.00;100943.25;5111855;28;20032;-68
2023/01/26 09:23:33;;;;;;;70.68;31.20;;;;;;;3.36;100.00;100938.50;5111738;28;20049;-68
2023/01/26 09:25:59;;;;;;;69.40;31.80;;;;;;;3.35;100.00;100939.41;5112133;28;20088;-68
2023/01/26 09:28:24;;;;;;;64.18;30.35;;;;;;;3.35;100.00;100926.16;5110797;28;20027;-68
2023/01/26 09:30:50;;;;;;;60.75;30.85;;;;;;;3.36;100.00;100935.84;5112107;28;20526;-68
2023/01/26 09:33:15;;;;;;;58.50;29.08;;;;;;;3.28;100.00;100911.47;5111926;28;20497;-68
2023/01/26 09:35:41;;;;;;;64.78;30.10;;;;;;;3.31;100.00;100929.88;5113394;28;20088;-68
2023/01/26 09:38:06;;;;;;;64.30;30.50;;;;;;;3.42;100.00;100942.63;5116224;28;20028;-68
2023/01/26 09:40:44;;;;;;;57.38;28.02;;;;;;;3.41;100.00;100930.28;5116048;28;20036;-68
2023/01/26 09:43:40;;;;;;;68.68;30.33;;;;;;;3.40;100.00;100925.91;5115998;28;20628;-68
2023/01/26 09:46:14;;;;;;;61.78;29.25;;;;;;;3.41;100.00;100924.97;5115697;28;20035;-68
2023/01/26 09:48:49;;;;;;;61.10;29.88;;;;;;;3.40;100.00;100915.31;5116186;28;20125;-68
2023/01/26 09:51:46;;;;;;;64.80;29.10;;;;;;;3.42;100.00;100924.06;5115884;28;20054;-67
2023/01/26 09:54:15;;;;;;;56.10;27.95;;;;;;;3.39;100.00;100910.97;5092638;28;20488;-68
2023/01/26 09:56:41;;;;;;;57.90;27.58;;;;;;;3.36;100.00;100905.81;5115371;28;20181;-68
2023/01/26 09:59:35;;;;;;;57.13;28.83;;;;;;;3.34;100.00;100907.66;5115928;28;20028;-68
2023/01/26 10:02:17;;;;;;;67.10;29.23;;;;;;;3.34;100.00;100902.34;5115615;28;20100;-67
2023/01/26 10:04:45;;;;;;;58.05;26.98;;;;;;;3.33;100.00;100898.00;5115712;28;20035;-68
2023/01/26 10:07:13;;;;;;;63.33;30.33;;;;;;;3.32;100.00;100891.00;5115386;28;20598;-68
2023/01/26 10:09:41;;;;;;;66.72;30.75;;;;;;;3.29;100.00;100891.97;5114146;28;20020;-68
2023/01/26 10:12:27;;;;;;;61.88;30.60;;;;;;;3.30;100.00;100891.06;5115260;27;20134;-67
2023/01/26 10:15:06;;;;;;;72.00;33.13;;;;;;;3.34;100.00;100891.75;5113768;28;20055;-68
2023/01/26 10:17:41;;;;;;;63.50;29.98;;;;;;;3.33;100.00;100887.41;5115322;28;20031;-68
2023/01/26 10:20:25;;;;;;;60.88;29.48;;;;;;;3.34;100.00;100892.63;5115332;28;20543;-67
2023/01/26 10:22:58;;;;;;;66.15;30.98;;;;;;;3.32;100.00;100881.22;5115152;28;20020;-67
2023/01/26 10:25:38;;;;;;;66.43;31.50;;;;;;;3.35;100.00;100888.19;5115476;28;20034;-67
2023/01/26 10:28:16;;;;;;;65.68;29.30;;;;;;;3.33;100.00;100879.44;5113622;28;20019;-67
2023/01/26 10:30:44;;;;;;;64.43;28.35;;;;;;;3.33;100.00;100874.13;5114796;28;20499;-67
2023/01/26 10:33:34;;;;;;;58.95;29.23;;;;;;;3.33;100.00;100874.13;5115108;28;20024;-66
2023/01/26 10:36:01;;;;;;;62.40;30.73;;;;;;;3.30;100.00;100866.34;5103614;28;20039;-67
2023/01/26 10:38:32;;;;;;;68.47;31.33;;;;;;;3.35;100.00;100874.94;5114786;28;20088;-68
2023/01/26 10:41:22;;;;;;;66.88;30.98;;;;;;;3.24;100.00;100843.66;5113412;28;20027;-69
2023/01/26 10:43:55;;;;;;;63.58;30.77;;;;;;;3.37;100.00;100854.50;5103838;28;20047;-69
2023/01/26 10:46:27;;;;;;;62.43;32.40;;;;;;;3.37;100.00;100852.72;5112534;28;20049;-69
2023/01/26 10:48:59;;;;;;;69.28;31.80;;;;;;;3.38;100.00;100854.41;5113739;28;20028;-69
2023/01/26 10:51:30;;;;;;;64.75;31.70;;;;;;;3.41;100.00;100851.63;5114271;28;20174;-69
2023/01/26 10:54:20;;;;;;;69.22;32.03;;;;;;;3.48;100.00;100844.22;5114261;28;20027;-69
2023/01/26 10:56:50;;;;;;;69.95;33.15;;;;;;;3.46;100.00;100851.38;5113752;28;20048;-69
2023/01/26 10:59:22;;;;;;;68.53;32.15;;;;;;;3.45;100.00;100839.91;5113514;28;20031;-69
2023/01/26 11:02:10;;;;;;;63.60;30.98;;;;;;;3.46;100.00;100838.13;5113924;28;20071;-69
2023/01/26 11:04:37;;;;;;;62.97;30.65;;;;;;;3.46;100.00;100835.47;5102904;28;20100;-69
2023/01/26 11:07:39;;;;;;;67.43;31.13;;;;;;;3.40;100.00;100838.44;5113886;28;20042;-69
2023/01/26 11:10:26;;;;;;;68.07;31.38;;;;;;;3.37;100.00;100830.63;5059904;28;20028;-69
2023/01/26 11:13:15;;;;;;;71.00;31.77;;;;;;;3.35;100.00;100824.56;5113612;28;20045;-69
2023/01/26 11:15:44;;;;;;;60.95;29.92;;;;;;;3.36;100.00;100823.63;5113874;28;20397;-69
2023/01/26 11:18:22;;;;;;;63.25;31.38;;;;;;;3.37;100.00;100817.38;5113696;28;20035;-69
2023/01/26 11:21:05;;;;;;;62.63;29.83;;;;;;;3.45;100.00;100809.91;5113506;28;20024;-69
2023/01/26 11:23:49;;;;;;;66.05;33.65;;;;;;;3.48;100.00;100809.75;5113656;28;20108;-69
2023/01/26 11:26:36;;;;;;;61.30;30.25;;;;;;;3.49;100.00;100803.50;5112190;28;20123;-69
2023/01/26 11:29:37;;;;;;;65.72;31.40;;;;;;;3.52;100.00;100803.34;5111869;28;20035;-69
2023/01/26 11:32:32;;;;;;;63.00;31.05;;;;;;;3.49;100.00;100787.59;5078477;28;20036;-69
2023/01/26 11:35:31;;;;;;;64.10;31.35;;;;;;;3.52;100.00;100788.28;5110798;28;20039;-69
2023/01/26 11:38:24;;;;;;;65.30;31.77;;;;;;;3.55;100.00;100779.34;5111971;28;20043;-69
2023/01/26 11:41:26;;;;;;;63.88;30.75;;;;;;;3.57;100.00;100780.97;5113272;28;20038;-69
2023/01/26 11:44:29;;;;;;;64.75;31.58;;;;;;;3.59;100.00;100771.16;5111689;28;20084;-69
2023/01/26 11:47:17;;;;;;;74.13;33.05;;;;;;;3.70;100.00;100759.94;5113352;28;20475;-69
2023/01/26 11:50:19;;;;;;;67.65;33.70;;;;;;;3.68;100.00;100772.47;5112817;28;20486;-69
2023/01/26 11:53:23;;;;;;;66.55;32.13;;;;;;;3.66;100.00;100766.38;5112728;28;20030;-69
2023/01/26 11:56:02;;;;;;;59.53;30.13;;;;;;;3.62;100.00;100755.06;5111112;28;20032;-69
2023/01/26 11:58:35;;;;;;;59.47;28.65;;;;;;;3.63;100.00;100753.25;5112094;28;20514;-69
2023/01/26 12:01:09;;;;;;;64.65;28.45;;;;;;;3.63;100.00;100750.59;5112873;28;20035;-69
2023/01/26 12:03:43;;;;;;;;;;;;;;;3.67;100.00;100749.50;5113395;28;20436;-70
2023/01/26 12:06:35;;;;;;;68.40;27.88;;;;;;;3.69;100.00;100743.19;5112714;28;20434;-70
2023/01/26 12:09:11;;;;;;;60.17;27.30;;;;;;;3.75;100.00;100750.84;5112610;27;20115;-70